createdAt,value
2023-02-24T00:02:00.394Z,96502.88
2023-02-24T00:04:52.072Z,96496.16
2023-02-24T00:07:41.287Z,96500.59
2023-02-24T00:10:31.498Z,96500.59
2023-02-24T00:13:22.553Z,96503.94
2023-02-24T00:16:13.426Z,96500.38
2023-02-24T00:19:03.618Z,96496.72
2023-02-24T00:21:54.556Z,96492.66
2023-02-24T00:24:43.917Z,96498.16
2023-02-24T00:27:33.590Z,96487.63
2023-02-24T00:30:24.198Z,96487.56
2023-02-24T00:33:14.714Z,96483.03
2023-02-24T00:36:11.780Z,96484.41
2023-02-24T00:39:09.361Z,96487.41
2023-02-24T00:42:04.817Z,96480.72
2023-02-24T00:44:55.286Z,96475.31
2023-02-24T00:47:44.822Z,96481.69
2023-02-24T00:50:35.618Z,96481.09
2023-02-24T00:53:25.119Z,96472.03
2023-02-24T00:56:16.498Z,96467.00
2023-02-24T00:59:05.896Z,96465.19
2023-02-24T01:01:56.002Z,96460.56
2023-02-24T01:04:46.376Z,96459.72
2023-02-24T01:07:37.698Z,96457.16
2023-02-24T01:10:30.675Z,96462.28
2023-02-24T01:13:19.372Z,96461.56
2023-02-24T01:16:09.667Z,96456.78
2023-02-24T01:18:58.725Z,96450.06
2023-02-24T01:21:48.081Z,96457.72
2023-02-24T01:24:42.570Z,96454.75
2023-02-24T01:27:32.612Z,96445.97
2023-02-24T01:30:22.844Z,96456.72
2023-02-24T01:33:14.840Z,96450.06
2023-02-24T01:36:10.471Z,96439.88
2023-02-24T01:39:01.530Z,96448.94
2023-02-24T01:41:53.435Z,96426.53
2023-02-24T01:45:13.352Z,96429.84
2023-02-24T01:48:05.460Z,96426.00
2023-02-24T01:50:55.488Z,96420.56
2023-02-24T01:53:44.682Z,96414.63
2023-02-24T01:56:33.937Z,96408.69
2023-02-24T01:59:26.129Z,96410.50
2023-02-24T02:02:16.087Z,96402.78
2023-02-24T02:05:09.589Z,96406.97
2023-02-24T02:07:58.784Z,96407.22
2023-02-24T02:10:48.668Z,96406.47
2023-02-24T02:13:39.529Z,96398.19
2023-02-24T02:16:53.598Z,96392.34
2023-02-24T02:20:16.788Z,96388.31
2023-02-24T02:23:32.382Z,96397.09
2023-02-24T02:26:40.642Z,96387.09
2023-02-24T02:30:13.840Z,96398.47
2023-02-24T02:33:55.129Z,96384.16
2023-02-24T02:36:55.281Z,96382.16
2023-02-24T02:39:50.772Z,96390.97
2023-02-24T02:42:42.957Z,96377.09
2023-02-24T02:45:40.405Z,96379.84
2023-02-24T02:48:34.619Z,96383.88
2023-02-24T02:51:28.215Z,96385.41
2023-02-24T02:54:23.360Z,96378.53
2023-02-24T02:57:15.698Z,96374.00
2023-02-24T03:00:13.597Z,96373.13
2023-02-24T03:03:07.163Z,96379.75
2023-02-24T03:05:59.170Z,96377.88
2023-02-24T03:08:53.680Z,96367.22
2023-02-24T03:11:45.536Z,96375.28
2023-02-24T03:14:37.726Z,96379.53
2023-02-24T03:17:29.638Z,96374.16
2023-02-24T03:20:22.897Z,96369.47
2023-02-24T03:23:16.998Z,96379.47
2023-02-24T03:26:17.203Z,96370.06
2023-02-24T03:29:17.235Z,96361.22
2023-02-24T03:32:11.223Z,96362.13
2023-02-24T03:35:03.272Z,96362.28
2023-02-24T03:37:55.382Z,96369.41
2023-02-24T03:40:45.106Z,96372.00
2023-02-24T03:43:45.543Z,96376.22
2023-02-24T03:46:36.833Z,96359.94
2023-02-24T03:49:26.597Z,96365.69
2023-02-24T03:52:23.282Z,96357.34
2023-02-24T03:55:19.740Z,96350.72
2023-02-24T03:58:16.703Z,96344.66
2023-02-24T04:01:13.857Z,96338.75
2023-02-24T04:04:08.713Z,96337.59
2023-02-24T04:07:18.577Z,96338.59
2023-02-24T04:10:12.948Z,96342.72
2023-02-24T04:13:13.106Z,96340.53
2023-02-24T04:16:06.146Z,96339.75
2023-02-24T04:18:58.301Z,96336.34
2023-02-24T04:21:49.915Z,96338.53
2023-02-24T04:24:46.212Z,96332.94
2023-02-24T04:27:35.692Z,96325.00
2023-02-24T04:30:36.691Z,96326.03
2023-02-24T04:33:26.966Z,96321.53
2023-02-24T04:36:15.846Z,96319.13
2023-02-24T04:39:07.772Z,96315.94
2023-02-24T04:41:58.167Z,96304.34
2023-02-24T04:44:47.842Z,96308.66
2023-02-24T04:47:37.387Z,96303.34
2023-02-24T04:50:27.077Z,96301.75
2023-02-24T04:58:29.764Z,96286.72
2023-02-24T05:01:19.937Z,96288.25
2023-02-24T05:04:09.959Z,96289.59
2023-02-24T05:06:59.400Z,96275.06
2023-02-24T05:09:49.222Z,96281.03
2023-02-24T05:12:40.275Z,96284.66
2023-02-24T05:15:32.317Z,96278.75
2023-02-24T05:18:24.066Z,96283.16
2023-02-24T05:21:31.943Z,96275.50
2023-02-24T05:24:21.021Z,96280.06
2023-02-24T05:27:10.847Z,96272.69
2023-02-24T05:29:59.893Z,96279.66
2023-02-24T05:32:50.358Z,96279.16
2023-02-24T05:35:39.683Z,96271.19
2023-02-24T05:38:28.605Z,96251.38
2023-02-24T05:41:20.249Z,96252.41
2023-02-24T05:44:12.374Z,96244.97
2023-02-24T05:47:01.765Z,96242.03
2023-02-24T05:49:54.477Z,96248.22
2023-02-24T05:52:45.931Z,96243.25
2023-02-24T05:55:36.605Z,96239.22
2023-02-24T05:58:29.278Z,96240.16
2023-02-24T06:01:19.527Z,96240.09
2023-02-24T06:04:10.062Z,96237.38
2023-02-24T06:07:03.858Z,96244.69
2023-02-24T06:09:54.791Z,96240.06
2023-02-24T06:12:43.725Z,96238.38
2023-02-24T06:15:33.093Z,96241.19
2023-02-24T06:18:22.329Z,96236.88
2023-02-24T06:21:12.790Z,96236.94
2023-02-24T06:24:04.960Z,96238.25
2023-02-24T06:26:56.463Z,96237.56
2023-02-24T06:29:50.201Z,96239.06
2023-02-24T06:32:39.540Z,96233.63
2023-02-24T06:35:28.577Z,96239.13
2023-02-24T06:38:17.854Z,96233.63
2023-02-24T06:41:11.078Z,96242.59
2023-02-24T06:44:00.218Z,96244.38
2023-02-24T06:46:49.313Z,96247.41
2023-02-24T06:49:39.145Z,96251.13
2023-02-24T06:52:30.046Z,96252.09
2023-02-24T06:55:33.350Z,96247.44
2023-02-24T06:58:25.029Z,96249.09
2023-02-24T07:01:15.264Z,96249.59
2023-02-24T07:04:20.993Z,96250.03
2023-02-24T07:07:14.648Z,96244.38
2023-02-24T07:10:04.411Z,96253.28
2023-02-24T07:12:55.149Z,96249.09
2023-02-24T07:15:51.577Z,96240.44
2023-02-24T07:18:41.824Z,96241.44
2023-02-24T07:21:39.933Z,96237.16
2023-02-24T07:24:36.209Z,96243.03
2023-02-24T07:27:27.884Z,96242.47
2023-02-24T07:30:18.419Z,96245.38
2023-02-24T07:33:10.607Z,96232.56
2023-02-24T07:35:59.702Z,96233.72
2023-02-24T07:38:48.985Z,96232.69
2023-02-24T07:41:38.088Z,96220.91
2023-02-24T07:44:29.494Z,96217.69
2023-02-24T07:47:18.610Z,96210.66
2023-02-24T07:50:14.675Z,96214.34
2023-02-24T07:53:05.356Z,96210.25
2023-02-24T07:55:55.121Z,96200.31
2023-02-24T07:58:45.478Z,96205.56
2023-02-24T08:01:39.196Z,96208.63
2023-02-24T08:04:30.289Z,96203.22
2023-02-24T08:07:25.246Z,96195.75
2023-02-24T08:10:25.559Z,96198.25
2023-02-24T08:13:14.508Z,96195.72
2023-02-24T08:16:06.729Z,96200.22
2023-02-24T08:18:57.949Z,96187.63
2023-02-24T08:21:50.567Z,96184.75
2023-02-24T08:24:43.954Z,96185.22
2023-02-24T08:27:38.919Z,96189.41
2023-02-24T08:30:30.131Z,96188.72
2023-02-24T08:33:21.602Z,96181.94
2023-02-24T08:36:10.831Z,96183.09
2023-02-24T08:38:59.923Z,96184.59
2023-02-24T08:41:51.629Z,96183.94
2023-02-24T08:44:42.426Z,96172.06
2023-02-24T08:47:36.170Z,96170.63
2023-02-24T08:50:31.219Z,96163.75
2023-02-24T08:53:20.350Z,96161.53
2023-02-24T08:56:11.642Z,96162.28
2023-02-24T08:59:06.460Z,96166.25
2023-02-24T09:02:14.886Z,96155.66
2023-02-24T09:05:13.197Z,96163.34
2023-02-24T09:08:04.856Z,96159.75
2023-02-24T09:10:53.584Z,96155.34
2023-02-24T09:13:51.798Z,96155.88
2023-02-24T09:16:52.482Z,96159.06
2023-02-24T09:19:56.900Z,96157.91
2023-02-24T09:22:58.186Z,96146.44
2023-02-24T09:25:50.707Z,96143.88
2023-02-24T09:28:48.763Z,96145.53
2023-02-24T09:31:48.347Z,96142.41
2023-02-24T09:34:44.146Z,96139.25
2023-02-24T09:37:33.038Z,96138.06
2023-02-24T09:40:39.546Z,96132.59
2023-02-24T09:43:30.983Z,96135.97
2023-02-24T09:46:19.792Z,96121.16
2023-02-24T09:49:15.387Z,96115.13
2023-02-24T09:52:09.172Z,96113.44
2023-02-24T09:55:11.743Z,96112.16
2023-02-24T09:58:25.008Z,96111.88
2023-02-24T10:01:33.860Z,96120.19
2023-02-24T10:04:36.271Z,96111.00
2023-02-24T10:07:36.247Z,96116.44
2023-02-24T10:10:29.215Z,96102.97
2023-02-24T10:13:30.458Z,96096.38
2023-02-24T10:16:24.249Z,96101.44
2023-02-24T10:19:19.935Z,96088.75
2023-02-24T10:22:27.674Z,96087.66
2023-02-24T10:25:41.817Z,96083.50
2023-02-24T10:28:36.900Z,96074.75
2023-02-24T10:31:30.779Z,96067.84
2023-02-24T10:34:25.383Z,96065.53
2023-02-24T10:37:27.653Z,96064.22
2023-02-24T10:40:26.604Z,96067.56
2023-02-24T10:43:19.650Z,96058.03
2023-02-24T10:46:17.514Z,96050.34
2023-02-24T10:49:10.152Z,96055.44
2023-02-24T10:51:59.105Z,96043.56
2023-02-24T10:55:05.300Z,96039.06
2023-02-24T10:58:06.142Z,96035.25
2023-02-24T11:01:13.678Z,96032.00
2023-02-24T11:04:22.836Z,96028.00
2023-02-24T11:07:24.572Z,96015.94
2023-02-24T11:10:19.119Z,96021.03
2023-02-24T11:13:31.442Z,96008.28
2023-02-24T11:16:39.384Z,96000.59
2023-02-24T11:19:29.943Z,95997.13
2023-02-24T11:22:22.252Z,95998.59
2023-02-24T11:25:22.898Z,95998.75
2023-02-24T11:28:21.623Z,95992.09
2023-02-24T11:31:22.171Z,95988.84
2023-02-24T11:34:20.698Z,95976.97
2023-02-24T11:37:16.250Z,95972.59
2023-02-24T11:40:09.917Z,95963.28
2023-02-24T11:43:01.168Z,95963.28
2023-02-24T11:45:52.590Z,95945.53
2023-02-24T11:48:45.306Z,95943.69
2023-02-24T11:51:38.077Z,95944.59
2023-02-24T11:54:27.340Z,95942.44
2023-02-24T11:57:20.842Z,95933.50
2023-02-24T12:00:20.233Z,95928.97
2023-02-24T12:03:15.844Z,95925.34
2023-02-24T12:06:15.010Z,95917.75
2023-02-24T12:09:12.248Z,95916.03
2023-02-24T12:12:03.987Z,95909.41
2023-02-24T12:14:55.392Z,95898.34
2023-02-24T12:17:51.891Z,95897.28
2023-02-24T12:20:43.398Z,95895.09
2023-02-24T12:23:34.374Z,95893.03
2023-02-24T12:26:27.353Z,95883.25
2023-02-24T12:29:42.692Z,95882.81
2023-02-24T12:32:41.480Z,95866.53
2023-02-24T12:35:36.447Z,95860.56
2023-02-24T12:38:38.573Z,95863.41
2023-02-24T12:41:48.205Z,95847.63
2023-02-24T12:44:45.669Z,95863.41
2023-02-24T12:47:43.094Z,95848.25
2023-02-24T12:50:38.338Z,95844.28
2023-02-24T12:53:32.518Z,95836.91
2023-02-24T12:56:24.268Z,95839.06
2023-02-24T12:59:18.163Z,95831.38
2023-02-24T13:02:09.398Z,95823.94
2023-02-24T13:05:04.561Z,95831.50
2023-02-24T13:08:08.604Z,95820.91
2023-02-24T13:11:03.822Z,95814.28
2023-02-24T13:13:58.025Z,95810.81
2023-02-24T13:16:48.275Z,95806.03
2023-02-24T13:19:37.895Z,95809.69
2023-02-24T13:22:32.873Z,95805.72
2023-02-24T13:25:24.042Z,95803.19
2023-02-24T13:28:26.257Z,95788.22
2023-02-24T13:31:15.109Z,95787.88
2023-02-24T13:34:14.487Z,95788.19
2023-02-24T13:37:04.434Z,95779.94
2023-02-24T13:39:53.052Z,95770.78
2023-02-24T13:42:42.148Z,95770.19
2023-02-24T13:45:32.082Z,95765.66
2023-02-24T13:48:32.430Z,95760.41
2023-02-24T13:51:41.582Z,95756.94
2023-02-24T13:55:00.316Z,95758.53
2023-02-24T13:57:59.527Z,95761.03
2023-02-24T14:00:59.572Z,95750.56
2023-02-24T14:04:06.738Z,95740.44
2023-02-24T14:06:59.023Z,95747.97
2023-02-24T14:09:52.771Z,95741.91
2023-02-24T14:12:43.675Z,95733.09
2023-02-24T14:15:32.835Z,95722.34
2023-02-24T14:18:23.711Z,95722.47
2023-02-24T14:21:22.445Z,95721.38
2023-02-24T14:24:15.151Z,95711.94
2023-02-24T14:27:04.147Z,95708.38
2023-02-24T14:29:54.309Z,95709.69
2023-02-24T14:32:45.279Z,95704.31
2023-02-24T14:35:37.276Z,95703.53
2023-02-24T14:38:31.613Z,95701.31
2023-02-24T14:41:23.552Z,95694.53
2023-02-24T14:44:22.159Z,95697.72
2023-02-24T14:47:12.242Z,95684.13
2023-02-24T14:50:02.675Z,95685.56
2023-02-24T14:52:55.440Z,95684.00
2023-02-24T14:55:48.170Z,95687.09
2023-02-24T14:58:42.607Z,95670.88
2023-02-24T15:01:34.160Z,95668.44
2023-02-24T15:04:32.213Z,95655.28
2023-02-24T15:07:24.068Z,95648.13
2023-02-24T15:10:21.203Z,95644.06
2023-02-24T15:13:14.228Z,95637.69
2023-02-24T15:16:10.238Z,95632.81
2023-02-24T15:19:01.562Z,95634.41
2023-02-24T15:21:50.490Z,95621.59
2023-02-24T15:24:39.076Z,95611.72
2023-02-24T15:27:29.433Z,95622.69
2023-02-24T15:30:31.962Z,95608.47
2023-02-24T15:33:23.812Z,95621.25
2023-02-24T15:36:13.955Z,95619.69
2023-02-24T15:39:06.167Z,95619.69
2023-02-24T15:42:07.826Z,95613.06
2023-02-24T15:44:57.962Z,95620.47
2023-02-24T15:47:47.029Z,95614.31
2023-02-24T15:50:39.203Z,95610.66
2023-02-24T15:53:27.679Z,95608.88
2023-02-24T15:56:17.275Z,95609.91
2023-02-24T15:59:06.141Z,95601.25
2023-02-24T16:01:54.923Z,95596.56
2023-02-24T16:04:44.003Z,95592.47
2023-02-24T16:07:36.362Z,95590.16
2023-02-24T16:10:27.829Z,95577.25
2023-02-24T16:13:18.744Z,95575.69
2023-02-24T16:16:08.158Z,95573.13
2023-02-24T16:18:57.194Z,95559.72
2023-02-24T16:21:46.614Z,95555.94
2023-02-24T16:24:36.578Z,95548.09
2023-02-24T16:27:26.138Z,95538.47
2023-02-24T16:30:22.123Z,95531.22
2023-02-24T16:33:13.078Z,95529.53
2023-02-24T16:36:02.154Z,95528.56
2023-02-24T16:38:51.778Z,95525.38
2023-02-24T16:41:42.090Z,95534.09
2023-02-24T16:44:30.894Z,95531.72
2023-02-24T16:47:23.130Z,95533.66
2023-02-24T16:50:19.697Z,95528.31
2023-02-24T16:53:09.158Z,95530.81
2023-02-24T16:55:58.044Z,95534.59
2023-02-24T16:58:48.620Z,95539.63
2023-02-24T17:01:37.416Z,95539.03
2023-02-24T17:04:26.138Z,95534.50
2023-02-24T17:07:16.216Z,95533.41
2023-02-24T17:10:05.138Z,95539.09
2023-02-24T17:12:54.113Z,95531.50
2023-02-24T17:15:44.342Z,95532.94
2023-02-24T17:18:32.991Z,95534.06
2023-02-24T17:21:21.773Z,95533.44
2023-02-24T17:24:15.138Z,95533.94
2023-02-24T17:27:04.420Z,95534.72
2023-02-24T17:29:53.238Z,95526.84
2023-02-24T17:32:43.507Z,95522.31
2023-02-24T17:35:32.533Z,95517.88
2023-02-24T17:38:23.279Z,95525.63
2023-02-24T17:41:11.905Z,95521.38
2023-02-24T17:44:00.705Z,95523.44
2023-02-24T17:46:49.351Z,95526.59
2023-02-24T17:49:39.915Z,95512.44
2023-02-24T17:52:29.455Z,95511.31
2023-02-24T17:55:18.661Z,95517.16
2023-02-24T17:58:07.453Z,95512.72
2023-02-24T18:00:56.483Z,95501.09
2023-02-24T18:03:45.467Z,95503.16
2023-02-24T18:06:36.219Z,95496.38
2023-02-24T18:09:25.055Z,95491.66
2023-02-24T18:12:14.133Z,95497.03
2023-02-24T18:15:08.551Z,95474.97
2023-02-24T18:17:57.848Z,95480.97
2023-02-24T18:20:46.605Z,95479.38
2023-02-24T18:23:38.259Z,95468.50
2023-02-24T18:26:27.309Z,95463.31
2023-02-24T18:29:16.097Z,95449.66
2023-02-24T18:32:05.245Z,95440.66
2023-02-24T18:34:54.374Z,95440.81
2023-02-24T18:37:43.758Z,95442.41
2023-02-24T18:40:34.158Z,95432.13
2023-02-24T18:43:22.782Z,95416.25
2023-02-24T18:46:13.974Z,95414.88
2023-02-24T18:49:03.685Z,95409.34
2023-02-24T18:51:52.798Z,95410.13
2023-02-24T18:54:41.691Z,95404.63
2023-02-24T18:57:32.056Z,95410.28
2023-02-24T19:00:21.649Z,95414.53
2023-02-24T19:03:10.791Z,95416.09
2023-02-24T19:05:59.635Z,95412.97
2023-02-24T19:08:49.491Z,95422.72
2023-02-24T19:11:39.206Z,95432.81
2023-02-24T19:14:29.594Z,95457.34
2023-02-24T19:17:18.742Z,95468.03
2023-02-24T19:20:09.688Z,95479.09
2023-02-24T19:22:58.785Z,95476.72
2023-02-24T19:25:47.710Z,95482.38
2023-02-24T19:28:36.479Z,95502.34
2023-02-24T19:31:28.997Z,95482.03
2023-02-24T19:34:18.025Z,95511.41
2023-02-24T19:37:06.793Z,95499.78
2023-02-24T19:39:56.159Z,95504.63
2023-02-24T19:42:47.116Z,95493.63
2023-02-24T19:45:36.132Z,95494.41
2023-02-24T19:48:26.128Z,95478.38
2023-02-24T19:51:16.637Z,95481.78
2023-02-24T19:54:06.371Z,95480.75
2023-02-24T19:56:57.984Z,95473.94
2023-02-24T19:59:46.809Z,95475.00
2023-02-24T20:02:35.766Z,95477.84
2023-02-24T20:05:26.117Z,95470.47
2023-02-24T20:08:15.035Z,95466.34
2023-02-24T20:11:06.479Z,95476.34
2023-02-24T20:13:55.780Z,95467.31
2023-02-24T20:16:46.829Z,95475.09
2023-02-24T20:19:35.801Z,95474.16
2023-02-24T20:22:26.673Z,95478.50
2023-02-24T20:25:16.073Z,95481.50
2023-02-24T20:28:05.178Z,95480.66
2023-02-24T20:30:55.020Z,95479.22
2023-02-24T20:33:44.562Z,95474.31
2023-02-24T20:36:34.600Z,95471.53
2023-02-24T20:39:25.926Z,95462.06
2023-02-24T20:42:15.312Z,95461.28
2023-02-24T20:45:05.147Z,95464.75
2023-02-24T20:47:54.200Z,95465.84
2023-02-24T20:50:43.632Z,95474.94
2023-02-24T20:53:37.911Z,95459.19
2023-02-24T20:56:34.270Z,95462.47
2023-02-24T20:59:23.547Z,95464.53
2023-02-24T21:02:13.301Z,95458.22
2023-02-24T21:05:02.678Z,95451.94
2023-02-24T21:07:51.849Z,95448.91
2023-02-24T21:10:44.993Z,95444.97
2023-02-24T21:13:36.552Z,95442.50
2023-02-24T21:16:27.001Z,95441.34
2023-02-24T21:19:19.268Z,95444.31
2023-02-24T21:22:09.359Z,95436.31
2023-02-24T21:24:58.401Z,95444.31
2023-02-24T21:27:48.702Z,95433.97
2023-02-24T21:30:44.125Z,95431.09
2023-02-24T21:33:33.422Z,95424.81
2023-02-24T21:36:26.530Z,95425.41
2023-02-24T21:39:15.784Z,95435.47
2023-02-24T21:42:04.942Z,95434.28
2023-02-24T21:44:57.379Z,95437.22
2023-02-24T21:47:48.132Z,95421.78
2023-02-24T21:50:37.973Z,95416.97
2023-02-24T21:53:28.373Z,95433.06
2023-02-24T21:56:19.846Z,95441.06
2023-02-24T21:59:11.397Z,95452.69
2023-02-24T22:02:01.025Z,95447.53
2023-02-24T22:04:52.615Z,95449.06
2023-02-24T22:07:41.774Z,95446.41
2023-02-24T22:10:30.943Z,95464.94
2023-02-24T22:13:20.209Z,95460.41
2023-02-24T22:16:11.175Z,95462.81
2023-02-24T22:19:01.212Z,95452.16
2023-02-24T22:21:51.809Z,95464.81
2023-02-24T22:24:41.884Z,95469.53
2023-02-24T22:27:31.892Z,95470.19
2023-02-24T22:30:21.160Z,95478.97
2023-02-24T22:33:10.548Z,95485.50
2023-02-24T22:36:03.620Z,95483.06
2023-02-24T22:38:54.857Z,95481.09
2023-02-24T22:41:45.643Z,95484.53
2023-02-24T22:44:34.937Z,95493.31
2023-02-24T22:47:24.319Z,95489.34
2023-02-24T22:50:13.648Z,95484.03
2023-02-24T22:53:02.809Z,95477.75
2023-02-24T22:55:53.294Z,95469.25
2023-02-24T22:58:42.409Z,95485.94
2023-02-24T23:01:33.445Z,95499.44
2023-02-24T23:04:22.605Z,95503.34
2023-02-24T23:07:12.150Z,95509.34
2023-02-24T23:10:01.372Z,95516.25
2023-02-24T23:12:53.207Z,95527.22
2023-02-24T23:15:42.544Z,95529.41
2023-02-24T23:18:32.485Z,95533.72
2023-02-24T23:21:24.255Z,95544.78
2023-02-24T23:24:15.173Z,95555.97
2023-02-24T23:27:04.448Z,95553.22
2023-02-24T23:29:55.250Z,95563.09
2023-02-24T23:32:45.174Z,95570.75
2023-02-24T23:35:36.321Z,95576.16
2023-02-24T23:38:26.697Z,95583.19
2023-02-24T23:41:16.798Z,95593.66
2023-02-24T23:44:06.950Z,95596.25
2023-02-24T23:46:58.812Z,95610.78
2023-02-24T23:49:48.815Z,95610.06
2023-02-24T23:52:38.558Z,95608.56
2023-02-24T23:55:30.740Z,95614.34
2023-02-24T23:58:20.301Z,95622.91
